VTBS/BKK METAR and TAF weather

Enter ICAO airport designator
Station Type Date Time Source
VTBS METAR 2022/05/24 11:30 UTC NOAA

VTBS 241130Z 21009KT 9999 FEW020 30/23 Q1007 NOSIG


Station Type Date Time Source
VTBS Decoded METAR 2022/05/24 11:30 UTC NOAA

Chon Buri, Thailand (VTBS) 13-22N 100-59E 2M
May 24, 2022 - 07:30 AM EDT / 2022.05.24 1130 UTC
Wind: from the SSW (210 degrees) at 10 MPH (9 KT):0
Visibility: greater than 7 mile(s):0
Sky conditions: mostly clear
Temperature: 86 F (30 C)
Heat index: 93.4 F (34.1 C):1
Dew Point: 73 F (23 C)
Relative Humidity: 66%
Pressure (altimeter): 29.74 in. Hg (1007 hPa)
ob: VTBS 241130Z 21009KT 9999 FEW020 30/23 Q1007 NOSIG
cycle: 11

Station Type Date Time Source
VTBS TAF 2022/05/24 12:00 UTC NOAA

TAF VTBS 241100Z 2412/2518 21010KT 9000 FEW020 SCT080
TEMPO 2412/2416 25010G25KT 4000 TSRA FEW018CB SCT035 BKN080

Example: see airport list